Time;durP1;ratioP1;P1;durP2;ratioP2;P2;SDS_P1;SDS_P2;PMS_P1;PMS_P2;Temp;Humidity;BMP_temperature;BMP_pressure;BME280_temperature;BME280_humidity;BME280_pressure;Samples;Min_cycle;Max_cycle;Signal;HPM_P1;HPM_P2
2022/08/24 00:00:56;;;;;;;5.07;3.10;;;19.00;91.20;;;;;;5073475;28;20032;-69
2022/08/24 00:03:23;;;;;;;4.47;3.22;;;19.00;91.40;;;;;;5066111;28;20032;-69
2022/08/24 00:05:49;;;;;;;3.90;2.95;;;18.90;91.60;;;;;;5073037;28;20032;-69
2022/08/24 00:08:16;;;;;;;5.00;3.05;;;18.80;91.90;;;;;;5067217;28;20117;-69
2022/08/24 00:10:42;;;;;;;6.63;3.00;;;18.80;92.10;;;;;;5072627;28;20115;-69
2022/08/24 00:13:08;;;;;;;5.25;3.17;;;18.80;92.20;;;;;;5074877;28;20554;-68
2022/08/24 00:15:34;;;;;;;5.15;3.28;;;18.80;92.30;;;;;;5077789;28;20055;-68
2022/08/24 00:17:59;;;;;;;4.05;3.25;;;18.70;92.40;;;;;;5078837;28;20040;-69
2022/08/24 00:20:25;;;;;;;4.45;2.95;;;18.70;92.50;;;;;;5069758;28;20039;-68
2022/08/24 00:22:52;;;;;;;4.93;2.95;;;18.70;92.50;;;;;;5063645;28;20124;-69
2022/08/24 00:25:19;;;;;;;7.38;3.60;;;18.70;92.40;;;;;;5066842;28;20046;-69
2022/08/24 00:27:46;;;;;;;4.38;2.85;;;18.60;92.40;;;;;;5069308;28;20823;-69
2022/08/24 00:30:14;;;;;;;4.05;2.83;;;18.60;92.40;;;;;;5073756;28;20039;-69
2022/08/24 00:32:42;;;;;;;6.07;3.08;;;18.50;92.40;;;;;;5073891;28;20028;-69
2022/08/24 00:35:09;;;;;;;5.55;3.40;;;18.50;92.60;;;;;;5065158;28;20024;-69
2022/08/24 00:37:36;;;;;;;7.28;3.40;;;18.50;92.60;;;;;;5066303;28;20028;-69
2022/08/24 00:40:05;;;;;;;4.35;2.95;;;18.40;92.60;;;;;;5065557;28;20051;-69
2022/08/24 00:42:32;;;;;;;4.47;2.88;;;18.40;92.70;;;;;;5075958;28;20020;-69
2022/08/24 00:44:58;;;;;;;6.07;3.28;;;18.40;92.80;;;;;;5062854;28;20060;-69
2022/08/24 00:47:30;;;;;;;6.30;3.40;;;18.40;92.80;;;;;;5068664;28;20032;-69
2022/08/24 00:49:59;;;;;;;5.22;2.92;;;18.30;92.80;;;;;;5077535;28;20406;-69
2022/08/24 00:52:37;;;;;;;4.55;3.17;;;18.30;92.90;;;;;;5078956;28;20032;-69
2022/08/24 00:55:14;;;;;;;5.32;2.95;;;18.30;93.00;;;;;;5063934;28;20032;-69
2022/08/24 00:57:44;;;;;;;5.68;2.90;;;18.20;93.10;;;;;;5072617;28;20067;-69
2022/08/24 01:00:16;;;;;;;4.35;3.17;;;18.20;93.20;;;;;;5070045;28;20036;-69
2022/08/24 01:02:47;;;;;;;6.18;2.88;;;18.20;93.30;;;;;;5065652;28;20403;-69
2022/08/24 01:05:15;;;;;;;4.78;2.92;;;18.20;93.40;;;;;;5069662;28;20028;-69
2022/08/24 01:07:41;;;;;;;4.15;3.08;;;18.10;93.40;;;;;;5078849;28;20024;-69
2022/08/24 01:10:11;;;;;;;3.97;3.10;;;18.10;93.20;;;;;;5066838;28;20032;-69
2022/08/24 01:12:40;;;;;;;4.65;3.28;;;18.10;93.20;;;;;;5069613;28;20115;-69
2022/08/24 01:15:09;;;;;;;5.78;2.97;;;18.00;93.20;;;;;;5073257;28;20036;-69
2022/08/24 01:20:22;;;;;;;3.20;2.15;;;18.00;93.30;;;;;;5065942;28;20482;-69
2022/08/24 01:23:22;;;;;;;3.80;2.80;;;18.00;93.00;;;;;;5063720;28;20024;-69
2022/08/24 01:25:48;;;;;;;4.93;2.83;;;17.90;93.20;;;;;;5079686;28;20074;-69
2022/08/24 01:28:18;;;;;;;3.45;3.10;;;17.90;93.40;;;;;;5071555;28;20060;-69
2022/08/24 01:30:44;;;;;;;4.05;2.80;;;17.90;93.60;;;;;;5081286;28;20103;-69
2022/08/24 01:33:20;;;;;;;3.42;2.58;;;17.80;93.80;;;;;;5071940;28;20752;-69
2022/08/24 01:35:46;;;;;;;3.53;2.83;;;17.90;93.90;;;;;;5077354;28;20408;-69
2022/08/24 01:38:12;;;;;;;4.47;2.90;;;17.80;93.70;;;;;;5074019;28;20036;-69
2022/08/24 01:40:47;;;;;;;4.57;2.83;;;17.90;93.40;;;;;;5065116;28;20169;-69
2022/08/24 01:43:13;;;;;;;3.85;2.70;;;17.80;93.00;;;;;;5069092;28;20020;-69
2022/08/24 01:45:40;;;;;;;4.68;2.80;;;17.80;92.80;;;;;;5083123;28;20039;-69
2022/08/24 01:48:06;;;;;;;3.63;2.85;;;17.80;92.90;;;;;;5070234;28;20501;-68
2022/08/24 01:50:32;;;;;;;3.40;2.47;;;17.70;93.00;;;;;;5071132;28;20066;-68
2022/08/24 01:53:01;;;;;;;3.47;2.90;;;17.70;93.20;;;;;;5068849;28;20029;-68
2022/08/24 01:55:27;;;;;;;4.95;3.13;;;17.70;93.20;;;;;;5068352;28;20112;-68
2022/08/24 01:57:53;;;;;;;2.88;2.65;;;17.70;93.20;;;;;;5072524;28;20108;-68
2022/08/24 02:00:19;;;;;;;6.68;3.20;;;17.60;93.30;;;;;;5068445;28;20043;-68
2022/08/24 02:02:45;;;;;;;4.30;2.78;;;17.60;93.30;;;;;;5075416;28;20570;-68
2022/08/24 02:05:13;;;;;;;4.07;2.58;;;17.60;93.40;;;;;;5070833;28;20025;-68
2022/08/24 02:07:40;;;;;;;3.55;2.70;;;17.60;93.40;;;;;;5081496;28;20020;-68
2022/08/24 02:10:10;;;;;;;3.28;2.60;;;17.50;93.50;;;;;;5068754;28;20149;-68
2022/08/24 02:12:39;;;;;;;3.30;2.97;;;17.50;93.80;;;;;;5078949;28;20938;-68
2022/08/24 02:15:07;;;;;;;6.18;3.25;;;17.50;94.00;;;;;;5064250;28;20068;-68
2022/08/24 02:17:34;;;;;;;7.30;3.55;;;17.60;94.30;;;;;;5066574;28;20396;-68
2022/08/24 02:20:01;;;;;;;5.32;3.38;;;17.60;94.40;;;;;;5066929;28;20036;-68
2022/08/24 02:22:27;;;;;;;5.05;3.47;;;17.50;94.40;;;;;;5072124;28;20028;-68
2022/08/24 02:24:53;;;;;;;4.05;2.95;;;17.60;94.40;;;;;;5078142;28;20032;-68
2022/08/24 02:27:19;;;;;;;6.07;3.10;;;17.50;94.50;;;;;;5082109;28;20086;-68
2022/08/24 02:29:45;;;;;;;5.22;3.35;;;17.50;94.50;;;;;;5080895;28;20028;-68
2022/08/24 02:32:12;;;;;;;4.35;3.60;;;17.50;94.50;;;;;;5083574;28;20081;-68
2022/08/24 02:34:38;;;;;;;3.28;2.85;;;17.50;94.50;;;;;;5068736;28;20020;-68
2022/08/24 02:37:04;;;;;;;4.63;3.20;;;17.50;94.40;;;;;;5066336;28;20031;-68
2022/08/24 02:39:31;;;;;;;5.18;3.35;;;17.50;94.30;;;;;;5070699;28;20028;-68
2022/08/24 02:41:59;;;;;;;7.32;3.67;;;17.50;94.10;;;;;;5073792;28;20028;-68
2022/08/24 02:44:25;;;;;;;4.03;3.28;;;17.40;93.90;;;;;;5075198;28;20907;-68
2022/08/24 02:46:52;;;;;;;4.13;2.85;;;17.40;93.90;;;;;;5073961;28;20733;-68
2022/08/24 02:49:20;;;;;;;4.07;2.90;;;17.40;93.90;;;;;;5066487;28;20032;-68
2022/08/24 02:51:46;;;;;;;5.68;3.53;;;17.30;93.90;;;;;;5063891;28;20785;-68
2022/08/24 02:54:16;;;;;;;6.63;3.65;;;17.40;93.80;;;;;;5064612;28;20040;-68
2022/08/24 02:56:43;;;;;;;5.82;3.30;;;17.30;93.80;;;;;;5068700;28;20665;-68
2022/08/24 02:59:10;;;;;;;5.68;3.42;;;17.20;93.80;;;;;;5074253;28;20507;-68
2022/08/24 03:01:36;;;;;;;5.07;3.90;;;17.20;93.90;;;;;;5079680;28;20039;-68
2022/08/24 03:04:02;;;;;;;4.53;2.85;;;17.20;94.10;;;;;;5068776;28;20029;-68
2022/08/24 03:06:28;;;;;;;4.03;3.20;;;17.20;94.00;;;;;;5068461;28;20027;-68
2022/08/24 03:08:55;;;;;;;5.20;3.47;;;17.20;94.00;;;;;;5024023;28;1181739;-68
2022/08/24 03:11:21;;;;;;;4.63;3.35;;;17.20;93.80;;;;;;5067500;28;20033;-68
2022/08/24 03:13:47;;;;;;;3.72;2.90;;;17.10;93.60;;;;;;5068834;28;20020;-68
2022/08/24 03:16:13;;;;;;;4.00;2.97;;;17.10;93.60;;;;;;5066257;28;20047;-68
2022/08/24 03:18:39;;;;;;;5.13;2.83;;;17.10;93.60;;;;;;5070676;28;20031;-68
2022/08/24 03:21:06;;;;;;;6.32;3.45;;;17.10;93.80;;;;;;5070915;28;20044;-68
2022/08/24 03:23:38;;;;;;;6.47;3.35;;;17.10;94.00;;;;;;5080435;28;20541;-68
2022/08/24 03:26:05;;;;;;;3.70;3.30;;;17.10;94.20;;;;;;5066759;28;20032;-68
2022/08/24 03:28:31;;;;;;;5.50;3.70;;;17.10;94.40;;;;;;5078557;28;20059;-68
2022/08/24 03:30:57;;;;;;;4.97;3.35;;;17.10;94.50;;;;;;5064123;28;20052;-68
2022/08/24 03:33:23;;;;;;;5.28;3.58;;;17.20;94.60;;;;;;5067127;28;20086;-68
2022/08/24 03:35:49;;;;;;;5.07;3.42;;;17.20;94.60;;;;;;5068089;28;20036;-68
2022/08/24 03:38:16;;;;;;;5.85;3.67;;;17.30;94.80;;;;;;5073657;28;20136;-68
2022/08/24 03:40:42;;;;;;;5.50;4.07;;;17.30;94.80;;;;;;5078692;28;20077;-68
2022/08/24 03:43:44;;;;;;;4.97;3.30;;;17.40;94.90;;;;;;5072396;28;20754;-69
2022/08/24 03:45:56;;;;;;;6.30;3.10;;;17.40;94.90;;;;;;5070347;28;20027;-68
2022/08/24 03:48:23;;;;;;;2.63;2.42;;;17.50;94.50;;;;;;5070783;28;20034;-68
2022/08/24 03:50:49;;;;;;;4.00;2.58;;;17.50;93.90;;;;;;5067945;28;20024;-68
2022/08/24 03:53:15;;;;;;;2.75;2.47;;;17.50;93.50;;;;;;5067483;28;20032;-68
2022/08/24 03:55:41;;;;;;;4.13;2.90;;;17.60;93.30;;;;;;5066901;28;20036;-68
2022/08/24 03:58:07;;;;;;;3.15;2.80;;;17.60;93.00;;;;;;5068195;28;20028;-68
2022/08/24 04:00:33;;;;;;;6.72;3.50;;;17.60;93.00;;;;;;5069035;28;20032;-68
2022/08/24 04:03:00;;;;;;;4.97;2.85;;;17.60;93.00;;;;;;5064994;28;20060;-68
2022/08/24 04:05:30;;;;;;;7.93;3.78;;;17.60;93.00;;;;;;5068005;28;20098;-68
2022/08/24 04:07:56;;;;;;;12.30;4.47;;;17.60;93.20;;;;;;5067636;28;20149;-68
2022/08/24 04:10:22;;;;;;;8.05;4.13;;;17.60;93.20;;;;;;5070390;28;20852;-68
2022/08/24 04:12:48;;;;;;;11.98;4.88;;;17.60;93.30;;;;;;5062512;28;20029;-68
2022/08/24 04:15:14;;;;;;;12.43;4.88;;;17.60;93.80;;;;;;5069049;28;20590;-69
2022/08/24 04:17:40;;;;;;;11.50;5.20;;;17.60;93.70;;;;;;5078647;28;20578;-69
2022/08/24 04:20:07;;;;;;;11.27;4.72;;;17.60;94.10;;;;;;5066004;28;20128;-69
2022/08/24 04:22:36;;;;;;;17.20;6.47;;;17.60;94.30;;;;;;5077837;28;20234;-68
2022/08/24 04:25:06;;;;;;;14.25;6.28;;;17.60;94.50;;;;;;5070919;28;20029;-69
2022/08/24 04:27:33;;;;;;;14.20;6.88;;;17.60;94.90;;;;;;5064878;28;20115;-68
2022/08/24 04:29:59;;;;;;;18.40;8.52;;;17.60;95.10;;;;;;5061982;28;20071;-69
2022/08/24 04:32:31;;;;;;;17.65;8.23;;;17.70;95.40;;;;;;5064091;28;20043;-69
2022/08/24 04:34:58;;;;;;;18.08;7.90;;;17.70;95.40;;;;;;5061013;28;20799;-69
2022/08/24 04:37:24;;;;;;;14.70;7.18;;;17.80;95.50;;;;;;5080656;28;20066;-69
2022/08/24 04:39:50;;;;;;;14.23;7.40;;;17.90;95.60;;;;;;5067972;28;20438;-69
2022/08/24 04:42:38;;;;;;;17.30;8.63;;;17.90;95.70;;;;;;5073027;28;20025;-68
2022/08/24 04:45:05;;;;;;;19.42;8.52;;;18.00;95.60;;;;;;5068369;28;20538;-68
2022/08/24 04:47:30;;;;;;;23.48;11.15;;;18.00;95.70;;;;;;5080220;28;20136;-69
2022/08/24 04:49:59;;;;;;;17.63;9.93;;;18.10;95.80;;;;;;5071669;28;20024;-67
2022/08/24 04:52:25;;;;;;;16.25;9.07;;;18.10;95.80;;;;;;5067092;28;20506;-68
2022/08/24 04:54:51;;;;;;;13.23;7.25;;;18.20;95.70;;;;;;5077609;28;20082;-68
2022/08/24 04:57:20;;;;;;;12.25;7.50;;;18.20;95.50;;;;;;5068725;28;20033;-69
2022/08/24 04:59:47;;;;;;;10.82;7.00;;;18.20;95.50;;;;;;5077209;28;20039;-68
2022/08/24 05:02:13;;;;;;;11.35;7.15;;;18.20;95.70;;;;;;5077510;28;20134;-69
2022/08/24 05:04:39;;;;;;;12.00;7.75;;;18.20;95.80;;;;;;5080582;28;20032;-68
2022/08/24 05:07:06;;;;;;;9.60;6.72;;;18.20;96.10;;;;;;5068539;28;20038;-69
2022/08/24 05:09:32;;;;;;;10.63;7.82;;;18.30;96.20;;;;;;5077013;28;20035;-69
2022/08/24 05:12:00;;;;;;;11.60;7.97;;;18.40;96.30;;;;;;5079152;28;20032;-69
2022/08/24 05:14:29;;;;;;;10.20;7.18;;;18.40;96.40;;;;;;5069097;28;20035;-69
2022/08/24 05:16:55;;;;;;;10.93;7.72;;;18.50;96.50;;;;;;5065319;28;20373;-69
2022/08/24 05:19:22;;;;;;;39.92;9.50;;;18.50;96.60;;;;;;5071383;28;20082;-68
2022/08/24 05:21:48;;;;;;;7.80;6.80;;;18.60;96.60;;;;;;5062657;28;20118;-69
2022/08/24 05:24:14;;;;;;;12.32;6.85;;;18.60;96.70;;;;;;5066061;28;20040;-69
2022/08/24 05:26:40;;;;;;;8.48;6.80;;;18.70;96.80;;;;;;5061335;28;20052;-69
2022/08/24 05:29:06;;;;;;;8.55;6.18;;;18.70;96.90;;;;;;5060579;28;20040;-69
2022/08/24 05:31:44;;;;;;;37.60;7.20;;;18.70;96.90;;;;;;5073792;28;20028;-69
2022/08/24 05:34:11;;;;;;;8.32;6.15;;;18.80;96.80;;;;;;5072037;28;20902;-69
2022/08/24 05:36:37;;;;;;;8.30;6.47;;;18.80;96.70;;;;;;5068072;28;20052;-69
2022/08/24 05:39:08;;;;;;;8.45;6.65;;;18.90;96.80;;;;;;5065439;28;20551;-69
2022/08/24 05:41:37;;;;;;;8.95;7.35;;;18.90;96.80;;;;;;5075300;28;20029;-68
2022/08/24 05:44:10;;;;;;;7.30;6.00;;;19.00;97.00;;;;;;5061752;28;20728;-69
2022/08/24 05:46:36;;;;;;;7.63;6.00;;;19.00;97.00;;;;;;5062121;28;20043;-69
2022/08/24 05:49:03;;;;;;;26.30;7.85;;;19.00;96.90;;;;;;5072328;28;20138;-69
2022/08/24 05:51:31;;;;;;;26.55;6.90;;;19.10;96.90;;;;;;5066123;28;20059;-69
2022/08/24 05:54:06;;;;;;;8.15;6.25;;;19.10;96.30;;;;;;5071113;28;20063;-69
2022/08/24 05:56:43;;;;;;;7.47;5.57;;;19.00;96.30;;;;;;5069865;28;20025;-68
2022/08/24 05:59:09;;;;;;;6.40;5.57;;;19.00;96.50;;;;;;5063922;28;20043;-68
2022/08/24 06:01:37;;;;;;;9.02;6.70;;;19.00;96.90;;;;;;5076377;28;20029;-68
2022/08/24 06:04:03;;;;;;;16.80;7.55;;;19.10;97.10;;;;;;5064806;28;20476;-68
2022/08/24 06:06:30;;;;;;;7.88;6.35;;;19.20;96.90;;;;;;5067167;28;20031;-68
2022/08/24 06:08:59;;;;;;;10.82;7.18;;;19.20;96.60;;;;;;5080348;28;20040;-69
2022/08/24 06:11:31;;;;;;;9.07;6.78;;;19.30;96.80;;;;;;5083048;28;20039;-69
2022/08/24 06:14:04;;;;;;;10.57;7.63;;;19.40;96.90;;;;;;5076920;28;20432;-69
2022/08/24 06:16:34;;;;;;;10.40;6.85;;;19.50;96.80;;;;;;5067095;28;20404;-67
2022/08/24 06:19:01;;;;;;;9.60;7.10;;;19.60;96.70;;;;;;5066246;28;20123;-68
2022/08/24 06:21:28;;;;;;;12.27;8.30;;;19.60;96.70;;;;;;5072639;28;20163;-69
2022/08/24 06:23:55;;;;;;;16.67;8.63;;;19.70;96.70;;;;;;5070483;28;20020;-68
2022/08/24 06:29:06;;;;;;;12.63;9.20;;;19.80;96.40;;;;;;5077053;28;20052;-68
2022/08/24 06:31:41;;;;;;;11.15;7.80;;;19.80;96.20;;;;;;5081128;28;20809;-69
2022/08/24 06:34:11;;;;;;;9.70;7.80;;;19.80;95.70;;;;;;5068109;28;20037;-68
2022/08/24 06:36:37;;;;;;;11.18;7.93;;;19.80;96.10;;;;;;5069233;28;20025;-69
2022/08/24 06:39:04;;;;;;;15.23;10.25;;;19.80;96.20;;;;;;5067569;28;20040;-68
2022/08/24 06:41:30;;;;;;;11.50;8.50;;;19.90;96.20;;;;;;5065393;28;20052;-68
2022/08/24 06:43:56;;;;;;;14.32;9.60;;;20.00;96.00;;;;;;5067449;28;20067;-69
2022/08/24 06:46:27;;;;;;;15.82;10.88;;;20.10;96.00;;;;;;5074539;28;20046;-68
2022/08/24 06:48:54;;;;;;;17.00;10.48;;;20.10;95.90;;;;;;5079689;28;20111;-69
2022/08/24 06:51:21;;;;;;;20.00;10.63;;;20.20;95.80;;;;;;5073246;28;20457;-68
2022/08/24 06:53:49;;;;;;;17.83;10.73;;;20.30;95.70;;;;;;5066752;28;20499;-69
2022/08/24 06:56:18;;;;;;;12.80;8.52;;;20.40;95.40;;;;;;5075658;28;20036;-68
2022/08/24 06:58:44;;;;;;;13.40;8.68;;;20.40;95.20;;;;;;5075566;28;20024;-68
2022/08/24 07:01:21;;;;;;;16.23;8.90;;;20.40;95.30;;;;;;5068303;28;20020;-68
2022/08/24 07:03:48;;;;;;;11.90;8.68;;;20.40;95.20;;;;;;5078348;28;20730;-68
2022/08/24 07:06:35;;;;;;;10.75;8.15;;;20.40;95.10;;;;;;5073891;28;20589;-69
2022/08/24 07:09:01;;;;;;;14.38;10.23;;;20.40;95.10;;;;;;5068679;28;20028;-69
2022/08/24 07:11:29;;;;;;;14.70;10.60;;;20.50;95.10;;;;;;5069044;28;20043;-68
2022/08/24 07:13:55;;;;;;;13.10;10.02;;;20.50;94.80;;;;;;5065200;28;20063;-68
2022/08/24 07:16:23;;;;;;;15.90;11.13;;;20.50;94.90;;;;;;5067914;28;20931;-68
2022/08/24 07:18:52;;;;;;;15.95;11.85;;;20.40;94.70;;;;;;5066720;28;20074;-68
2022/08/24 07:21:20;;;;;;;17.13;10.88;;;20.40;94.90;;;;;;5062380;28;20048;-70
2022/08/24 07:23:47;;;;;;;12.88;9.82;;;20.50;95.00;;;;;;5068977;28;20036;-68
2022/08/24 07:26:18;;;;;;;16.73;11.77;;;20.50;95.10;;;;;;5074317;28;20133;-70
2022/08/24 07:28:44;;;;;;;14.60;10.88;;;20.60;95.10;;;;;;5078675;28;20028;-68
2022/08/24 07:31:12;;;;;;;18.17;12.93;;;20.60;94.90;;;;;;5066576;28;20035;-68
2022/08/24 07:33:46;;;;;;;20.30;13.10;;;20.70;94.80;;;;;;5073588;28;20028;-70
2022/08/24 07:36:13;;;;;;;23.13;13.73;;;20.80;94.60;;;;;;5072889;28;20060;-70
2022/08/24 07:38:40;;;;;;;18.88;12.00;;;20.90;94.60;;;;;;5064010;28;20056;-68
2022/08/24 07:41:06;;;;;;;18.60;12.48;;;20.90;94.40;;;;;;5061113;28;20032;-67
2022/08/24 07:43:33;;;;;;;17.55;11.98;;;21.00;94.40;;;;;;5072323;28;20030;-70
2022/08/24 07:45:59;;;;;;;16.52;11.30;;;21.00;94.20;;;;;;5065759;28;20729;-70
2022/08/24 07:48:27;;;;;;;21.27;13.07;;;21.00;94.20;;;;;;5067475;28;20662;-70
2022/08/24 07:50:54;;;;;;;17.80;12.20;;;21.00;94.20;;;;;;5064407;28;20033;-68
2022/08/24 07:53:20;;;;;;;17.90;12.07;;;21.10;94.20;;;;;;5064271;28;20054;-70
2022/08/24 07:55:55;;;;;;;18.77;11.35;;;21.10;94.10;;;;;;5062060;28;20512;-70
2022/08/24 07:58:23;;;;;;;16.73;10.43;;;21.20;94.10;;;;;;5061132;28;20079;-70
2022/08/24 08:00:49;;;;;;;19.38;10.98;;;21.20;93.70;;;;;;5069409;28;20583;-70
2022/08/24 08:03:15;;;;;;;18.48;12.18;;;21.20;93.80;;;;;;5068399;28;20031;-68
2022/08/24 08:05:43;;;;;;;21.65;13.07;;;21.30;93.60;;;;;;5067408;28;20020;-68
2022/08/24 08:08:10;;;;;;;19.08;11.70;;;21.40;93.50;;;;;;5071075;28;20031;-68
2022/08/24 08:10:36;;;;;;;17.58;11.00;;;21.40;93.30;;;;;;5077607;28;20047;-68
2022/08/24 08:13:05;;;;;;;21.92;13.73;;;21.40;93.30;;;;;;5063110;28;20807;-68
2022/08/24 08:15:31;;;;;;;24.23;14.40;;;21.40;93.20;;;;;;5076167;28;20400;-68
2022/08/24 08:18:09;;;;;;;22.88;14.52;;;21.50;93.30;;;;;;5046413;28;20408;-68
2022/08/24 08:20:39;;;;;;;23.15;13.93;;;21.50;92.80;;;;;;5079505;28;20028;-68
2022/08/24 08:26:05;;;;;;;22.50;14.05;;;21.60;93.30;;;;;;5066093;28;20181;-68
2022/08/24 08:28:43;;;;;;;27.85;16.75;;;21.70;93.20;;;;;;5075923;28;20020;-68
2022/08/24 08:31:10;;;;;;;30.00;16.70;;;21.80;93.00;;;;;;5063166;28;20043;-68
2022/08/24 08:33:36;;;;;;;31.35;17.63;;;21.80;92.90;;;;;;5059478;28;20468;-70
2022/08/24 08:36:07;;;;;;;28.65;16.40;;;21.90;92.70;;;;;;5060085;28;20047;-68
2022/08/24 08:38:35;;;;;;;26.42;15.32;;;22.00;92.70;;;;;;5068806;28;20028;-68
2022/08/24 08:41:16;;;;;;;23.75;15.20;;;22.00;92.70;;;;;;5066577;28;20688;-68
2022/08/24 08:44:27;;;;;;;30.95;15.10;;;22.10;92.60;;;;;;5072153;28;20028;-68
2022/08/24 08:47:04;;;;;;;23.27;14.30;;;22.10;92.50;;;;;;5042745;28;20090;-70
2022/08/24 08:50:03;;;;;;;23.33;13.27;;;22.20;92.40;;;;;;5062231;28;20034;-68
2022/08/24 08:52:51;;;;;;;21.90;12.32;;;22.30;92.00;;;;;;5059023;28;20040;-68
2022/08/24 08:55:44;;;;;;;19.58;12.77;;;22.30;91.70;;;;;;5066728;28;20139;-68
2022/08/24 08:58:31;;;;;;;20.95;12.90;;;22.20;91.90;;;;;;5056096;28;20113;-68
2022/08/24 09:01:25;;;;;;;20.90;11.95;;;22.20;92.30;;;;;;5059426;28;20032;-68
2022/08/24 09:04:14;;;;;;;22.98;14.43;;;22.30;92.30;;;;;;5090304;28;20532;-70
2022/08/24 09:07:07;;;;;;;20.92;14.20;;;22.40;91.90;;;;;;5072372;28;20039;-68
2022/08/24 09:09:55;;;;;;;20.45;12.98;;;22.60;91.50;;;;;;5073965;28;20056;-69
2022/08/24 09:12:30;;;;;;;21.75;13.75;;;22.80;91.50;;;;;;5069369;28;20028;-68
2022/08/24 09:15:28;;;;;;;20.77;13.98;;;22.90;91.20;;;;;;5073573;28;20032;-68
2022/08/24 09:18:44;;;;;;;22.85;14.63;;;23.00;90.50;;;;;;5075959;28;20051;-68
2022/08/24 09:21:37;;;;;;;22.10;13.43;;;23.10;89.80;;;;;;5054123;28;20726;-68
2022/08/24 09:24:42;;;;;;;22.42;13.57;;;23.10;90.30;;;;;;5073374;28;20040;-70
2022/08/24 09:27:59;;;;;;;21.70;12.70;;;23.30;90.30;;;;;;5075720;28;20043;-70
2022/08/24 09:30:37;;;;;;;23.48;13.38;;;23.70;90.00;;;;;;5061229;28;20724;-71
2022/08/24 09:33:18;;;;;;;22.23;13.95;;;23.90;87.80;;;;;;5060137;28;20029;-71
2022/08/24 09:36:10;;;;;;;23.55;13.85;;;23.90;87.30;;;;;;5071424;28;20032;-69
2022/08/24 09:38:49;;;;;;;18.35;12.60;;;24.00;87.50;;;;;;5068912;28;20577;-68
2022/08/24 09:41:26;;;;;;;17.13;12.82;;;24.00;87.40;;;;;;5071693;28;20033;-70
2022/08/24 09:44:07;;;;;;;15.70;11.20;;;24.10;85.70;;;;;;5073607;28;20552;-70
2022/08/24 09:46:51;;;;;;;18.90;11.65;;;24.10;86.00;;;;;;5068460;28;20027;-69
2022/08/24 09:49:46;;;;;;;19.73;11.85;;;24.10;86.30;;;;;;5072619;28;20484;-69
2022/08/24 09:52:30;;;;;;;17.02;10.75;;;24.20;85.80;;;;;;5076327;28;20472;-69
2022/08/24 09:55:50;;;;;;;14.40;10.40;;;24.30;85.50;;;;;;5073244;28;20071;-69
2022/08/24 09:58:44;;;;;;;16.83;10.02;;;24.40;84.20;;;;;;5051038;28;20037;-70
2022/08/24 10:01:20;;;;;;;11.43;8.25;;;24.40;84.10;;;;;;5070922;28;20052;-69
2022/08/24 10:03:48;;;;;;;;;;;24.40;84.50;;;;;;5071217;28;20028;-70
2022/08/24 10:06:52;;;;;;;12.18;9.32;;;24.40;83.70;;;;;;5068283;28;19912;-69
2022/08/24 10:09:28;;;;;;;14.25;9.63;;;24.40;84.10;;;;;;5041352;28;20037;-69
2022/08/24 10:12:14;;;;;;;14.75;9.23;;;24.40;83.10;;;;;;5039848;28;20036;-70
2022/08/24 10:15:07;;;;;;;13.30;9.82;;;24.40;82.60;;;;;;5061366;28;20052;-69
2022/08/24 10:18:11;;;;;;;11.75;7.82;;;24.30;84.00;;;;;;5075370;28;20028;-69
2022/08/24 10:21:15;;;;;;;12.07;8.73;;;24.40;84.50;;;;;;5070776;28;20029;-70
2022/08/24 10:24:14;;;;;;;11.88;8.55;;;24.50;83.90;;;;;;5073577;28;20563;-69
2022/08/24 10:26:58;;;;;;;14.40;9.13;;;24.50;83.40;;;;;;5066418;28;20033;-69
2022/08/24 10:30:05;;;;;;;14.18;8.63;;;24.60;83.20;;;;;;5065899;28;20036;-69
2022/08/24 10:32:50;;;;;;;11.95;8.25;;;24.70;82.50;;;;;;5063624;28;20032;-69
2022/08/24 10:35:21;;;;;;;10.60;7.55;;;24.80;81.60;;;;;;5072316;28;20039;-69
2022/08/24 10:41:17;;;;;;;12.48;8.30;;;24.90;82.60;;;;;;5067358;28;20040;-70
2022/08/24 10:44:21;;;;;;;14.35;8.43;;;25.10;80.60;;;;;;5065705;28;20032;-70
2022/08/24 10:46:48;;;;;;;11.15;7.78;;;25.20;79.80;;;;;;5035826;28;20683;-70
2022/08/24 10:49:36;;;;;;;12.23;7.80;;;25.20;80.30;;;;;;5039420;28;20032;-70
2022/08/24 10:52:30;;;;;;;11.95;7.55;;;25.10;79.60;;;;;;5057954;28;20113;-69
2022/08/24 10:55:15;;;;;;;10.18;7.28;;;25.10;80.30;;;;;;5069134;28;20063;-69
2022/08/24 10:58:04;;;;;;;11.02;7.55;;;25.10;79.40;;;;;;5069733;28;20127;-69
2022/08/24 11:00:30;;;;;;;14.75;7.60;;;25.10;79.10;;;;;;5066169;28;20063;-69
2022/08/24 11:03:11;;;;;;;13.30;7.68;;;25.00;79.10;;;;;;5065322;28;20800;-69
2022/08/24 11:05:45;;;;;;;14.05;8.10;;;24.90;79.90;;;;;;5067676;28;20067;-70
2022/08/24 11:08:26;;;;;;;8.45;6.82;;;24.90;80.10;;;;;;5064716;28;20063;-70
2022/08/24 11:11:06;;;;;;;13.15;7.43;;;24.90;79.00;;;;;;5071386;28;20051;-69
2022/08/24 11:13:33;;;;;;;11.20;7.35;;;25.10;79.80;;;;;;5072052;28;20059;-68
2022/08/24 11:16:02;;;;;;;9.05;6.85;;;25.30;78.80;;;;;;5066405;28;20025;-69
2022/08/24 11:18:50;;;;;;;13.73;7.18;;;25.60;78.30;;;;;;5071451;28;20040;-69
2022/08/24 11:21:47;;;;;;;12.55;7.28;;;25.90;77.70;;;;;;5071274;28;20607;-70
2022/08/24 11:24:23;;;;;;;11.57;7.05;;;26.20;76.60;;;;;;5071099;28;20161;-70
2022/08/24 11:27:01;;;;;;;10.57;6.45;;;26.30;73.60;;;;;;5074366;28;20464;-69
2022/08/24 11:29:50;;;;;;;9.63;6.70;;;26.50;73.90;;;;;;5080993;28;20032;-69
2022/08/24 11:32:39;;;;;;;7.78;6.20;;;26.70;73.30;;;;;;5068397;28;20044;-70
2022/08/24 11:35:22;;;;;;;12.27;6.60;;;26.70;71.40;;;;;;5067007;28;20085;-70
2022/08/24 11:37:51;;;;;;;8.93;6.30;;;26.70;72.60;;;;;;5066545;28;20472;-70
2022/08/24 11:40:20;;;;;;;9.25;6.53;;;26.60;72.20;;;;;;5067670;28;20029;-70
2022/08/24 11:42:58;;;;;;;6.88;5.75;;;26.30;72.00;;;;;;5063720;28;20023;-70
2022/08/24 11:45:56;;;;;;;11.43;6.20;;;26.20;70.50;;;;;;5064671;28;20489;-69
2022/08/24 11:48:34;;;;;;;10.73;5.85;;;26.00;72.40;;;;;;5052302;28;20453;-70
2022/08/24 11:51:14;;;;;;;11.85;5.78;;;26.10;71.80;;;;;;5069065;28;20048;-69
2022/08/24 11:54:01;;;;;;;10.48;5.60;;;26.10;71.20;;;;;;5071387;28;20523;-69
2022/08/24 11:56:33;;;;;;;9.48;5.93;;;26.20;72.40;;;;;;5070406;28;20032;-70
2022/08/24 11:59:09;;;;;;;10.63;5.90;;;26.30;72.00;;;;;;5067197;28;20416;-69
2022/08/24 12:01:58;;;;;;;11.93;5.85;;;26.50;70.40;;;;;;5063437;28;20119;-70
2022/08/24 12:04:38;;;;;;;11.90;5.97;;;26.60;70.20;;;;;;5062571;28;20855;-70
2022/08/24 12:07:23;;;;;;;10.82;5.82;;;26.70;70.50;;;;;;5068126;28;20094;-69
2022/08/24 12:09:59;;;;;;;10.68;6.15;;;26.90;70.70;;;;;;5074331;28;20064;-69
2022/08/24 12:13:06;;;;;;;15.77;5.90;;;27.00;69.70;;;;;;5069549;28;20036;-69
2022/08/24 12:15:58;;;;;;;10.82;6.22;;;27.10;69.20;;;;;;5053613;28;20044;-69
2022/08/24 12:18:33;;;;;;;8.25;6.03;;;27.10;67.30;;;;;;5068107;28;20191;-69
2022/08/24 12:20:59;;;;;;;8.80;5.30;;;27.00;67.20;;;;;;5070789;28;20140;-70
2022/08/24 12:23:44;;;;;;;9.93;5.97;;;26.90;66.30;;;;;;5062272;28;20040;-69
2022/08/24 12:26:25;;;;;;;10.73;5.53;;;26.70;66.20;;;;;;5069706;28;20040;-69
2022/08/24 12:29:03;;;;;;;11.80;5.50;;;26.50;65.60;;;;;;5073866;28;20043;-70
2022/08/24 12:31:35;;;;;;;7.72;5.57;;;26.40;66.50;;;;;;5075236;28;20089;-69
2022/08/24 12:34:07;;;;;;;7.78;5.43;;;26.40;66.30;;;;;;5070617;28;20637;-69
2022/08/24 12:36:59;;;;;;;8.30;5.75;;;26.40;66.80;;;;;;5064475;28;20117;-70
2022/08/24 12:39:36;;;;;;;10.82;5.35;;;26.60;67.00;;;;;;5066055;28;20063;-71
2022/08/24 12:42:23;;;;;;;10.45;5.22;;;26.80;66.80;;;;;;5062257;28;20040;-70
2022/08/24 12:45:00;;;;;;;9.70;5.18;;;27.00;65.00;;;;;;5060156;28;20028;-70
2022/08/24 12:47:51;;;;;;;8.98;4.72;;;27.10;63.90;;;;;;5071152;28;20028;-70
2022/08/24 12:50:52;;;;;;;6.97;4.80;;;27.10;63.40;;;;;;5074651;28;20042;-69
2022/08/24 12:53:30;;;;;;;8.10;4.85;;;27.20;61.90;;;;;;5050868;28;20071;-70
2022/08/24 12:56:05;;;;;;;9.93;5.22;;;27.40;63.90;;;;;;5070874;28;20067;-69
2022/08/24 12:58:46;;;;;;;7.00;5.38;;;27.60;63.40;;;;;;5063226;28;20035;-70
2022/08/24 13:01:14;;;;;;;10.13;5.18;;;27.90;63.70;;;;;;5062146;28;20150;-70
2022/08/24 13:03:43;;;;;;;7.97;5.80;;;28.10;62.70;;;;;;5068396;28;20034;-70
2022/08/24 13:06:25;;;;;;;9.40;5.30;;;28.20;62.80;;;;;;5069282;28;20094;-70
2022/08/24 13:09:03;;;;;;;9.82;5.55;;;28.30;63.00;;;;;;5066711;28;20047;-70
2022/08/24 13:11:32;;;;;;;8.32;5.97;;;28.30;62.30;;;;;;5067296;28;20036;-70
2022/08/24 13:13:57;;;;;;;11.25;6.97;;;28.20;61.30;;;;;;5068660;28;20119;-70
2022/08/24 13:16:56;;;;;;;11.07;6.22;;;28.10;61.40;;;;;;5074935;28;20122;-70
2022/08/24 13:19:21;;;;;;;9.38;6.10;;;28.00;61.60;;;;;;5052006;28;20040;-70
2022/08/24 13:22:15;;;;;;;9.52;6.03;;;27.90;62.60;;;;;;5073044;28;20467;-69
2022/08/24 13:25:21;;;;;;;8.48;5.10;;;27.70;62.90;;;;;;5068013;28;20131;-69